sensor_id;sensor_type;location;lat;lon;timestamp;P1;durP1;ratioP1;P2;durP2;ratioP2
71910;SDS011;59783;52.232;5.170;2023-05-19T00:00:52;31.50;;;26.25;;
71910;SDS011;59783;52.232;5.170;2023-05-19T00:03:18;29.52;;;26.45;;
71910;SDS011;59783;52.232;5.170;2023-05-19T00:05:45;28.23;;;25.50;;
71910;SDS011;59783;52.232;5.170;2023-05-19T00:08:12;28.20;;;25.38;;
71910;SDS011;59783;52.232;5.170;2023-05-19T00:13:05;28.38;;;25.40;;
71910;SDS011;59783;52.232;5.170;2023-05-19T00:15:30;28.50;;;25.45;;
71910;SDS011;59783;52.232;5.170;2023-05-19T00:17:56;27.85;;;24.45;;
71910;SDS011;59783;52.232;5.170;2023-05-19T00:20:21;28.17;;;25.30;;
71910;SDS011;59783;52.232;5.170;2023-05-19T00:22:47;29.23;;;25.70;;
71910;SDS011;59783;52.232;5.170;2023-05-19T00:25:12;33.25;;;25.45;;
71910;SDS011;59783;52.232;5.170;2023-05-19T00:27:37;26.77;;;24.07;;
71910;SDS011;59783;52.232;5.170;2023-05-19T00:30:02;30.80;;;26.17;;
71910;SDS011;59783;52.232;5.170;2023-05-19T00:32:28;27.33;;;24.52;;
71910;SDS011;59783;52.232;5.170;2023-05-19T00:34:53;33.80;;;25.70;;
71910;SDS011;59783;52.232;5.170;2023-05-19T00:37:18;28.57;;;25.77;;
71910;SDS011;59783;52.232;5.170;2023-05-19T00:39:44;25.80;;;23.30;;
71910;SDS011;59783;52.232;5.170;2023-05-19T00:42:09;28.47;;;25.80;;
71910;SDS011;59783;52.232;5.170;2023-05-19T00:44:36;27.83;;;24.90;;
71910;SDS011;59783;52.232;5.170;2023-05-19T00:47:03;24.33;;;20.70;;
71910;SDS011;59783;52.232;5.170;2023-05-19T00:49:29;27.30;;;24.40;;
71910;SDS011;59783;52.232;5.170;2023-05-19T00:51:54;23.33;;;20.98;;
71910;SDS011;59783;52.232;5.170;2023-05-19T00:54:19;28.60;;;25.67;;
71910;SDS011;59783;52.232;5.170;2023-05-19T00:56:45;26.45;;;23.75;;
71910;SDS011;59783;52.232;5.170;2023-05-19T00:59:10;27.90;;;25.17;;
71910;SDS011;59783;52.232;5.170;2023-05-19T01:01:35;27.83;;;25.02;;
71910;SDS011;59783;52.232;5.170;2023-05-19T01:04:00;28.53;;;25.70;;
71910;SDS011;59783;52.232;5.170;2023-05-19T01:06:27;28.58;;;24.92;;
71910;SDS011;59783;52.232;5.170;2023-05-19T01:08:53;28.88;;;25.83;;
71910;SDS011;59783;52.232;5.170;2023-05-19T01:11:19;30.20;;;27.23;;
71910;SDS011;59783;52.232;5.170;2023-05-19T01:13:45;28.98;;;25.27;;
71910;SDS011;59783;52.232;5.170;2023-05-19T01:16:11;24.37;;;20.13;;
71910;SDS011;59783;52.232;5.170;2023-05-19T01:18:46;27.63;;;24.67;;
71910;SDS011;59783;52.232;5.170;2023-05-19T01:31:48;27.80;;;25.02;;
71910;SDS011;59783;52.232;5.170;2023-05-19T01:34:15;29.63;;;26.65;;
71910;SDS011;59783;52.232;5.170;2023-05-19T01:36:41;29.40;;;26.35;;
71910;SDS011;59783;52.232;5.170;2023-05-19T01:39:08;28.98;;;25.85;;
71910;SDS011;59783;52.232;5.170;2023-05-19T01:41:34;27.58;;;24.73;;
71910;SDS011;59783;52.232;5.170;2023-05-19T01:43:59;27.10;;;21.40;;
71910;SDS011;59783;52.232;5.170;2023-05-19T01:46:24;33.47;;;27.53;;
71910;SDS011;59783;52.232;5.170;2023-05-19T01:48:49;31.67;;;28.50;;
71910;SDS011;59783;52.232;5.170;2023-05-19T01:51:16;29.63;;;26.60;;
71910;SDS011;59783;52.232;5.170;2023-05-19T01:53:41;28.47;;;25.27;;
71910;SDS011;59783;52.232;5.170;2023-05-19T01:56:06;29.05;;;26.23;;
71910;SDS011;59783;52.232;5.170;2023-05-19T02:03:59;31.08;;;27.98;;
71910;SDS011;59783;52.232;5.170;2023-05-19T02:09:06;28.27;;;25.27;;
71910;SDS011;59783;52.232;5.170;2023-05-19T02:14:19;26.75;;;23.85;;
71910;SDS011;59783;52.232;5.170;2023-05-19T02:16:46;28.15;;;25.13;;
71910;SDS011;59783;52.232;5.170;2023-05-19T02:19:25;29.38;;;26.42;;
71910;SDS011;59783;52.232;5.170;2023-05-19T02:21:50;29.50;;;26.63;;
71910;SDS011;59783;52.232;5.170;2023-05-19T02:24:16;27.80;;;25.10;;
71910;SDS011;59783;52.232;5.170;2023-05-19T02:26:41;30.73;;;26.40;;
71910;SDS011;59783;52.232;5.170;2023-05-19T02:29:06;26.40;;;22.20;;
71910;SDS011;59783;52.232;5.170;2023-05-19T02:31:31;29.60;;;25.88;;
71910;SDS011;59783;52.232;5.170;2023-05-19T02:33:56;30.83;;;27.83;;
71910;SDS011;59783;52.232;5.170;2023-05-19T02:36:22;35.58;;;25.92;;
71910;SDS011;59783;52.232;5.170;2023-05-19T02:38:47;30.80;;;27.70;;
71910;SDS011;59783;52.232;5.170;2023-05-19T02:41:12;28.97;;;25.97;;
71910;SDS011;59783;52.232;5.170;2023-05-19T02:43:37;30.83;;;27.73;;
71910;SDS011;59783;52.232;5.170;2023-05-19T02:46:02;28.87;;;25.97;;
71910;SDS011;59783;52.232;5.170;2023-05-19T02:48:27;29.23;;;26.27;;
71910;SDS011;59783;52.232;5.170;2023-05-19T02:50:53;29.80;;;26.60;;
71910;SDS011;59783;52.232;5.170;2023-05-19T02:53:18;28.70;;;25.67;;
71910;SDS011;59783;52.232;5.170;2023-05-19T02:55:43;30.55;;;27.42;;
71910;SDS011;59783;52.232;5.170;2023-05-19T02:58:08;30.53;;;27.37;;
71910;SDS011;59783;52.232;5.170;2023-05-19T03:00:33;30.97;;;27.67;;
71910;SDS011;59783;52.232;5.170;2023-05-19T03:02:58;29.90;;;26.50;;
71910;SDS011;59783;52.232;5.170;2023-05-19T03:05:26;32.30;;;28.45;;
71910;SDS011;59783;52.232;5.170;2023-05-19T03:07:51;31.55;;;28.35;;
71910;SDS011;59783;52.232;5.170;2023-05-19T03:10:17;32.43;;;29.13;;
71910;SDS011;59783;52.232;5.170;2023-05-19T03:12:42;29.95;;;26.13;;
71910;SDS011;59783;52.232;5.170;2023-05-19T03:15:07;33.30;;;27.50;;
71910;SDS011;59783;52.232;5.170;2023-05-19T03:17:32;29.70;;;26.83;;
71910;SDS011;59783;52.232;5.170;2023-05-19T03:19:58;31.40;;;27.97;;
71910;SDS011;59783;52.232;5.170;2023-05-19T03:22:23;30.73;;;27.38;;
71910;SDS011;59783;52.232;5.170;2023-05-19T03:24:49;30.90;;;27.65;;
71910;SDS011;59783;52.232;5.170;2023-05-19T03:27:15;31.58;;;27.30;;
71910;SDS011;59783;52.232;5.170;2023-05-19T03:29:40;30.67;;;27.57;;
71910;SDS011;59783;52.232;5.170;2023-05-19T03:32:05;30.93;;;27.67;;
71910;SDS011;59783;52.232;5.170;2023-05-19T03:34:31;32.03;;;28.90;;
71910;SDS011;59783;52.232;5.170;2023-05-19T03:36:56;32.03;;;28.60;;
71910;SDS011;59783;52.232;5.170;2023-05-19T03:39:21;33.20;;;28.57;;
71910;SDS011;59783;52.232;5.170;2023-05-19T03:41:46;32.17;;;27.23;;
71910;SDS011;59783;52.232;5.170;2023-05-19T03:44:12;31.67;;;28.50;;
71910;SDS011;59783;52.232;5.170;2023-05-19T03:46:37;33.53;;;28.60;;
71910;SDS011;59783;52.232;5.170;2023-05-19T03:49:02;31.97;;;26.87;;
71910;SDS011;59783;52.232;5.170;2023-05-19T03:51:27;31.93;;;27.43;;
71910;SDS011;59783;52.232;5.170;2023-05-19T03:53:53;33.20;;;26.90;;
71910;SDS011;59783;52.232;5.170;2023-05-19T03:56:19;31.27;;;27.93;;
71910;SDS011;59783;52.232;5.170;2023-05-19T03:58:47;30.45;;;27.08;;
71910;SDS011;59783;52.232;5.170;2023-05-19T04:01:13;31.10;;;26.58;;
71910;SDS011;59783;52.232;5.170;2023-05-19T04:03:38;31.73;;;28.38;;
71910;SDS011;59783;52.232;5.170;2023-05-19T04:06:04;26.93;;;22.80;;
71910;SDS011;59783;52.232;5.170;2023-05-19T04:08:29;31.67;;;28.27;;
71910;SDS011;59783;52.232;5.170;2023-05-19T04:10:54;29.73;;;26.77;;
71910;SDS011;59783;52.232;5.170;2023-05-19T04:13:20;32.75;;;28.75;;
71910;SDS011;59783;52.232;5.170;2023-05-19T04:15:45;33.27;;;29.40;;
71910;SDS011;59783;52.232;5.170;2023-05-19T04:18:10;31.20;;;27.80;;
71910;SDS011;59783;52.232;5.170;2023-05-19T04:20:36;31.27;;;27.27;;
71910;SDS011;59783;52.232;5.170;2023-05-19T04:23:01;32.42;;;21.90;;
71910;SDS011;59783;52.232;5.170;2023-05-19T04:25:26;32.60;;;28.83;;
71910;SDS011;59783;52.232;5.170;2023-05-19T04:27:52;32.13;;;28.75;;
71910;SDS011;59783;52.232;5.170;2023-05-19T04:30:17;30.73;;;27.35;;
71910;SDS011;59783;52.232;5.170;2023-05-19T04:32:46;30.85;;;26.17;;
71910;SDS011;59783;52.232;5.170;2023-05-19T04:35:12;34.72;;;28.80;;
71910;SDS011;59783;52.232;5.170;2023-05-19T04:37:37;30.05;;;26.60;;
71910;SDS011;59783;52.232;5.170;2023-05-19T04:40:03;35.70;;;27.42;;
71910;SDS011;59783;52.232;5.170;2023-05-19T04:42:29;30.55;;;27.25;;
71910;SDS011;59783;52.232;5.170;2023-05-19T04:44:56;33.67;;;27.13;;
71910;SDS011;59783;52.232;5.170;2023-05-19T04:47:22;34.40;;;27.88;;
71910;SDS011;59783;52.232;5.170;2023-05-19T04:49:51;30.25;;;26.63;;
71910;SDS011;59783;52.232;5.170;2023-05-19T04:52:19;33.78;;;29.15;;
71910;SDS011;59783;52.232;5.170;2023-05-19T04:54:45;32.88;;;29.58;;
71910;SDS011;59783;52.232;5.170;2023-05-19T04:57:10;32.80;;;29.10;;
71910;SDS011;59783;52.232;5.170;2023-05-19T04:59:36;34.10;;;29.83;;
71910;SDS011;59783;52.232;5.170;2023-05-19T05:02:01;34.15;;;30.20;;
71910;SDS011;59783;52.232;5.170;2023-05-19T05:04:26;36.42;;;30.73;;
71910;SDS011;59783;52.232;5.170;2023-05-19T05:06:52;34.78;;;28.15;;
71910;SDS011;59783;52.232;5.170;2023-05-19T05:09:17;33.60;;;29.73;;
71910;SDS011;59783;52.232;5.170;2023-05-19T05:11:43;34.15;;;29.42;;
71910;SDS011;59783;52.232;5.170;2023-05-19T05:14:09;29.45;;;24.83;;
71910;SDS011;59783;52.232;5.170;2023-05-19T05:16:34;35.25;;;28.67;;
71910;SDS011;59783;52.232;5.170;2023-05-19T05:19:00;38.17;;;31.83;;
71910;SDS011;59783;52.232;5.170;2023-05-19T05:21:26;32.78;;;25.83;;
71910;SDS011;59783;52.232;5.170;2023-05-19T05:23:52;35.70;;;31.77;;
71910;SDS011;59783;52.232;5.170;2023-05-19T05:26:17;37.80;;;31.38;;
71910;SDS011;59783;52.232;5.170;2023-05-19T05:28:43;35.97;;;31.58;;
71910;SDS011;59783;52.232;5.170;2023-05-19T05:31:08;36.13;;;32.37;;
71910;SDS011;59783;52.232;5.170;2023-05-19T05:33:34;36.77;;;31.50;;
71910;SDS011;59783;52.232;5.170;2023-05-19T05:35:59;32.63;;;26.70;;
71910;SDS011;59783;52.232;5.170;2023-05-19T05:38:24;38.42;;;32.25;;
71910;SDS011;59783;52.232;5.170;2023-05-19T05:40:49;37.25;;;26.58;;
71910;SDS011;59783;52.232;5.170;2023-05-19T05:43:15;34.13;;;30.30;;
71910;SDS011;59783;52.232;5.170;2023-05-19T05:45:40;35.20;;;31.40;;
71910;SDS011;59783;52.232;5.170;2023-05-19T05:48:05;37.57;;;30.60;;
71910;SDS011;59783;52.232;5.170;2023-05-19T05:50:30;34.80;;;30.15;;
71910;SDS011;59783;52.232;5.170;2023-05-19T05:52:56;35.42;;;30.35;;
71910;SDS011;59783;52.232;5.170;2023-05-19T05:55:21;35.92;;;32.13;;
71910;SDS011;59783;52.232;5.170;2023-05-19T05:57:47;36.70;;;30.67;;
71910;SDS011;59783;52.232;5.170;2023-05-19T06:00:14;35.50;;;31.33;;
71910;SDS011;59783;52.232;5.170;2023-05-19T06:02:47;36.85;;;32.67;;
71910;SDS011;59783;52.232;5.170;2023-05-19T06:05:13;36.15;;;29.55;;
71910;SDS011;59783;52.232;5.170;2023-05-19T06:07:39;35.67;;;31.92;;
71910;SDS011;59783;52.232;5.170;2023-05-19T06:10:04;41.38;;;30.60;;
71910;SDS011;59783;52.232;5.170;2023-05-19T06:12:30;32.67;;;29.10;;
71910;SDS011;59783;52.232;5.170;2023-05-19T06:14:55;33.77;;;30.13;;
71910;SDS011;59783;52.232;5.170;2023-05-19T06:17:20;35.93;;;29.93;;
71910;SDS011;59783;52.232;5.170;2023-05-19T06:19:45;35.70;;;31.97;;
71910;SDS011;59783;52.232;5.170;2023-05-19T06:22:10;32.43;;;29.13;;
71910;SDS011;59783;52.232;5.170;2023-05-19T06:24:36;33.17;;;29.07;;
71910;SDS011;59783;52.232;5.170;2023-05-19T06:27:01;33.60;;;30.13;;
71910;SDS011;59783;52.232;5.170;2023-05-19T06:29:26;32.30;;;28.80;;
71910;SDS011;59783;52.232;5.170;2023-05-19T06:31:51;35.43;;;29.50;;
71910;SDS011;59783;52.232;5.170;2023-05-19T06:34:16;31.23;;;27.97;;
71910;SDS011;59783;52.232;5.170;2023-05-19T06:36:42;35.33;;;28.23;;
71910;SDS011;59783;52.232;5.170;2023-05-19T06:39:07;32.47;;;29.17;;
71910;SDS011;59783;52.232;5.170;2023-05-19T06:41:32;30.47;;;27.07;;
71910;SDS011;59783;52.232;5.170;2023-05-19T06:43:58;32.28;;;28.55;;
71910;SDS011;59783;52.232;5.170;2023-05-19T06:46:23;31.35;;;27.02;;
71910;SDS011;59783;52.232;5.170;2023-05-19T06:48:49;31.30;;;27.90;;
71910;SDS011;59783;52.232;5.170;2023-05-19T06:51:14;32.08;;;28.73;;
71910;SDS011;59783;52.232;5.170;2023-05-19T06:53:45;30.45;;;27.20;;
71910;SDS011;59783;52.232;5.170;2023-05-19T06:56:10;30.27;;;27.23;;
71910;SDS011;59783;52.232;5.170;2023-05-19T06:58:35;26.33;;;23.50;;
71910;SDS011;59783;52.232;5.170;2023-05-19T07:01:00;30.50;;;27.37;;
71910;SDS011;59783;52.232;5.170;2023-05-19T07:03:26;27.17;;;24.10;;
71910;SDS011;59783;52.232;5.170;2023-05-19T07:05:51;31.47;;;28.17;;
71910;SDS011;59783;52.232;5.170;2023-05-19T07:08:16;28.58;;;25.58;;
71910;SDS011;59783;52.232;5.170;2023-05-19T07:10:41;25.70;;;22.77;;
71910;SDS011;59783;52.232;5.170;2023-05-19T07:13:06;31.30;;;28.13;;
71910;SDS011;59783;52.232;5.170;2023-05-19T07:15:32;30.33;;;27.17;;
71910;SDS011;59783;52.232;5.170;2023-05-19T07:17:57;30.90;;;27.83;;
71910;SDS011;59783;52.232;5.170;2023-05-19T07:20:22;31.83;;;25.13;;
71910;SDS011;59783;52.232;5.170;2023-05-19T07:22:47;25.90;;;23.17;;
71910;SDS011;59783;52.232;5.170;2023-05-19T07:25:13;31.05;;;27.38;;
71910;SDS011;59783;52.232;5.170;2023-05-19T07:27:38;30.37;;;27.27;;
71910;SDS011;59783;52.232;5.170;2023-05-19T07:30:03;30.47;;;27.17;;
71910;SDS011;59783;52.232;5.170;2023-05-19T07:32:28;30.77;;;27.67;;
71910;SDS011;59783;52.232;5.170;2023-05-19T07:34:53;29.57;;;25.67;;
71910;SDS011;59783;52.232;5.170;2023-05-19T07:37:19;32.67;;;27.10;;
71910;SDS011;59783;52.232;5.170;2023-05-19T07:39:44;30.20;;;27.10;;
71910;SDS011;59783;52.232;5.170;2023-05-19T07:42:09;28.77;;;25.87;;
71910;SDS011;59783;52.232;5.170;2023-05-19T07:44:34;28.90;;;25.87;;
71910;SDS011;59783;52.232;5.170;2023-05-19T07:47:00;30.03;;;27.03;;
71910;SDS011;59783;52.232;5.170;2023-05-19T07:49:25;28.58;;;25.80;;
71910;SDS011;59783;52.232;5.170;2023-05-19T07:51:50;29.67;;;26.77;;
71910;SDS011;59783;52.232;5.170;2023-05-19T07:54:16;29.80;;;26.83;;
71910;SDS011;59783;52.232;5.170;2023-05-19T07:56:41;26.90;;;24.40;;
71910;SDS011;59783;52.232;5.170;2023-05-19T07:59:06;30.40;;;25.73;;
71910;SDS011;59783;52.232;5.170;2023-05-19T08:01:32;29.45;;;26.45;;
71910;SDS011;59783;52.232;5.170;2023-05-19T08:03:57;29.30;;;26.08;;
71910;SDS011;59783;52.232;5.170;2023-05-19T08:06:22;28.60;;;25.63;;
71910;SDS011;59783;52.232;5.170;2023-05-19T08:08:49;28.23;;;24.63;;
71910;SDS011;59783;52.232;5.170;2023-05-19T08:11:14;27.30;;;24.43;;
71910;SDS011;59783;52.232;5.170;2023-05-19T08:13:39;27.33;;;24.53;;
71910;SDS011;59783;52.232;5.170;2023-05-19T08:16:05;34.72;;;27.05;;
71910;SDS011;59783;52.232;5.170;2023-05-19T08:18:30;26.55;;;23.73;;
71910;SDS011;59783;52.232;5.170;2023-05-19T08:20:55;27.50;;;24.57;;
71910;SDS011;59783;52.232;5.170;2023-05-19T08:23:20;29.00;;;26.03;;
71910;SDS011;59783;52.232;5.170;2023-05-19T08:25:45;27.58;;;24.60;;
71910;SDS011;59783;52.232;5.170;2023-05-19T08:28:11;28.10;;;25.30;;
71910;SDS011;59783;52.232;5.170;2023-05-19T08:30:36;28.20;;;25.30;;
71910;SDS011;59783;52.232;5.170;2023-05-19T08:33:02;26.52;;;23.80;;
71910;SDS011;59783;52.232;5.170;2023-05-19T08:35:27;23.23;;;20.70;;
71910;SDS011;59783;52.232;5.170;2023-05-19T08:37:52;27.20;;;24.30;;
71910;SDS011;59783;52.232;5.170;2023-05-19T08:40:18;22.13;;;19.92;;
71910;SDS011;59783;52.232;5.170;2023-05-19T08:42:44;27.05;;;24.20;;
71910;SDS011;59783;52.232;5.170;2023-05-19T08:45:09;29.08;;;26.45;;
71910;SDS011;59783;52.232;5.170;2023-05-19T08:47:35;26.38;;;23.67;;
71910;SDS011;59783;52.232;5.170;2023-05-19T08:50:03;26.40;;;23.87;;
71910;SDS011;59783;52.232;5.170;2023-05-19T08:52:37;23.35;;;20.88;;
71910;SDS011;59783;52.232;5.170;2023-05-19T08:55:14;27.45;;;24.85;;
71910;SDS011;59783;52.232;5.170;2023-05-19T08:57:41;28.13;;;25.38;;
71910;SDS011;59783;52.232;5.170;2023-05-19T09:00:06;22.85;;;20.65;;
71910;SDS011;59783;52.232;5.170;2023-05-19T09:02:38;28.63;;;25.80;;
71910;SDS011;59783;52.232;5.170;2023-05-19T09:05:03;25.92;;;23.15;;
71910;SDS011;59783;52.232;5.170;2023-05-19T09:07:29;26.92;;;23.08;;
71910;SDS011;59783;52.232;5.170;2023-05-19T09:09:55;26.70;;;23.98;;
71910;SDS011;59783;52.232;5.170;2023-05-19T09:12:20;26.80;;;24.13;;
71910;SDS011;59783;52.232;5.170;2023-05-19T09:14:45;26.07;;;23.40;;
71910;SDS011;59783;52.232;5.170;2023-05-19T09:17:11;28.85;;;26.02;;
71910;SDS011;59783;52.232;5.170;2023-05-19T09:19:41;27.27;;;24.73;;
71910;SDS011;59783;52.232;5.170;2023-05-19T09:22:06;27.02;;;24.30;;
71910;SDS011;59783;52.232;5.170;2023-05-19T09:24:32;28.20;;;25.37;;
71910;SDS011;59783;52.232;5.170;2023-05-19T09:26:57;28.15;;;25.02;;
71910;SDS011;59783;52.232;5.170;2023-05-19T09:29:23;26.65;;;23.88;;
71910;SDS011;59783;52.232;5.170;2023-05-19T09:31:54;27.45;;;24.58;;
71910;SDS011;59783;52.232;5.170;2023-05-19T09:34:24;26.45;;;23.92;;
71910;SDS011;59783;52.232;5.170;2023-05-19T09:36:50;25.88;;;23.25;;
71910;SDS011;59783;52.232;5.170;2023-05-19T09:39:20;25.25;;;22.15;;
71910;SDS011;59783;52.232;5.170;2023-05-19T09:41:46;22.65;;;20.17;;
71910;SDS011;59783;52.232;5.170;2023-05-19T09:44:21;28.42;;;25.55;;
71910;SDS011;59783;52.232;5.170;2023-05-19T09:46:56;30.98;;;24.20;;
71910;SDS011;59783;52.232;5.170;2023-05-19T09:49:23;25.02;;;22.52;;
71910;SDS011;59783;52.232;5.170;2023-05-19T09:51:49;26.48;;;23.98;;
71910;SDS011;59783;52.232;5.170;2023-05-19T09:54:15;23.48;;;20.30;;
71910;SDS011;59783;52.232;5.170;2023-05-19T09:56:40;25.77;;;22.42;;
71910;SDS011;59783;52.232;5.170;2023-05-19T09:59:05;24.63;;;22.23;;
71910;SDS011;59783;52.232;5.170;2023-05-19T10:01:31;26.30;;;23.75;;
71910;SDS011;59783;52.232;5.170;2023-05-19T10:03:57;28.65;;;25.85;;
71910;SDS011;59783;52.232;5.170;2023-05-19T10:06:23;25.45;;;22.80;;
71910;SDS011;59783;52.232;5.170;2023-05-19T10:08:49;27.10;;;23.65;;
71910;SDS011;59783;52.232;5.170;2023-05-19T10:11:16;25.45;;;23.00;;
71910;SDS011;59783;52.232;5.170;2023-05-19T10:13:41;25.25;;;22.75;;
71910;SDS011;59783;52.232;5.170;2023-05-19T10:16:07;26.27;;;23.50;;
71910;SDS011;59783;52.232;5.170;2023-05-19T10:18:33;26.80;;;24.08;;
71910;SDS011;59783;52.232;5.170;2023-05-19T10:20:58;27.10;;;24.40;;
71910;SDS011;59783;52.232;5.170;2023-05-19T10:23:24;26.73;;;23.88;;
71910;SDS011;59783;52.232;5.170;2023-05-19T10:25:50;25.63;;;23.15;;
71910;SDS011;59783;52.232;5.170;2023-05-19T10:28:17;25.40;;;22.98;;
71910;SDS011;59783;52.232;5.170;2023-05-19T10:30:45;28.08;;;25.17;;
71910;SDS011;59783;52.232;5.170;2023-05-19T10:33:12;24.67;;;22.02;;
71910;SDS011;59783;52.232;5.170;2023-05-19T10:40:42;24.80;;;22.23;;
71910;SDS011;59783;52.232;5.170;2023-05-19T10:43:14;25.42;;;22.30;;
71910;SDS011;59783;52.232;5.170;2023-05-19T10:45:47;25.25;;;22.70;;
71910;SDS011;59783;52.232;5.170;2023-05-19T10:48:13;26.00;;;23.02;;
71910;SDS011;59783;52.232;5.170;2023-05-19T10:50:38;26.90;;;22.70;;
71910;SDS011;59783;52.232;5.170;2023-05-19T10:53:03;25.60;;;22.50;;
71910;SDS011;59783;52.232;5.170;2023-05-19T10:58:13;24.70;;;22.20;;
71910;SDS011;59783;52.232;5.170;2023-05-19T11:00:38;19.63;;;17.53;;
71910;SDS011;59783;52.232;5.170;2023-05-19T11:03:11;20.85;;;18.75;;
71910;SDS011;59783;52.232;5.170;2023-05-19T11:05:37;20.20;;;17.80;;
71910;SDS011;59783;52.232;5.170;2023-05-19T11:08:04;19.30;;;17.23;;
71910;SDS011;59783;52.232;5.170;2023-05-19T11:12:55;22.02;;;18.88;;
71910;SDS011;59783;52.232;5.170;2023-05-19T11:15:21;20.35;;;18.05;;
71910;SDS011;59783;52.232;5.170;2023-05-19T11:17:47;20.30;;;18.13;;
71910;SDS011;59783;52.232;5.170;2023-05-19T11:20:26;21.15;;;18.92;;
71910;SDS011;59783;52.232;5.170;2023-05-19T11:23:24;25.70;;;23.08;;
71910;SDS011;59783;52.232;5.170;2023-05-19T11:25:43;21.00;;;18.58;;
71910;SDS011;59783;52.232;5.170;2023-05-19T11:28:10;20.30;;;18.17;;
71910;SDS011;59783;52.232;5.170;2023-05-19T11:30:37;23.98;;;19.02;;
71910;SDS011;59783;52.232;5.170;2023-05-19T11:33:02;22.85;;;19.40;;
71910;SDS011;59783;52.232;5.170;2023-05-19T11:35:27;22.15;;;19.58;;
71910;SDS011;59783;52.232;5.170;2023-05-19T11:37:53;20.85;;;18.10;;
71910;SDS011;59783;52.232;5.170;2023-05-19T11:40:19;24.25;;;21.73;;
71910;SDS011;59783;52.232;5.170;2023-05-19T11:42:45;24.27;;;21.88;;
71910;SDS011;59783;52.232;5.170;2023-05-19T11:45:10;20.63;;;18.53;;
71910;SDS011;59783;52.232;5.170;2023-05-19T11:47:35;25.97;;;23.57;;
71910;SDS011;59783;52.232;5.170;2023-05-19T11:50:01;21.77;;;18.35;;
71910;SDS011;59783;52.232;5.170;2023-05-19T11:52:26;23.95;;;21.60;;
71910;SDS011;59783;52.232;5.170;2023-05-19T11:54:51;21.83;;;18.85;;
71910;SDS011;59783;52.232;5.170;2023-05-19T11:57:17;20.20;;;18.13;;
71910;SDS011;59783;52.232;5.170;2023-05-19T11:59:42;20.42;;;18.38;;
71910;SDS011;59783;52.232;5.170;2023-05-19T12:02:17;20.02;;;18.00;;
71910;SDS011;59783;52.232;5.170;2023-05-19T12:04:42;20.33;;;18.13;;
71910;SDS011;59783;52.232;5.170;2023-05-19T12:07:09;22.45;;;18.35;;
71910;SDS011;59783;52.232;5.170;2023-05-19T12:09:35;20.00;;;17.67;;
71910;SDS011;59783;52.232;5.170;2023-05-19T12:12:01;24.60;;;22.27;;
71910;SDS011;59783;52.232;5.170;2023-05-19T12:14:28;21.00;;;18.67;;
71910;SDS011;59783;52.232;5.170;2023-05-19T12:16:53;23.92;;;21.73;;
71910;SDS011;59783;52.232;5.170;2023-05-19T12:19:21;23.63;;;19.37;;
71910;SDS011;59783;52.232;5.170;2023-05-19T12:21:46;22.90;;;18.85;;
71910;SDS011;59783;52.232;5.170;2023-05-19T12:24:11;27.00;;;21.43;;
71910;SDS011;59783;52.232;5.170;2023-05-19T12:26:37;23.15;;;18.13;;
71910;SDS011;59783;52.232;5.170;2023-05-19T12:29:05;20.77;;;17.90;;
71910;SDS011;59783;52.232;5.170;2023-05-19T12:31:31;21.45;;;18.73;;
71910;SDS011;59783;52.232;5.170;2023-05-19T12:33:57;21.50;;;19.38;;
71910;SDS011;59783;52.232;5.170;2023-05-19T12:36:23;22.17;;;18.98;;
71910;SDS011;59783;52.232;5.170;2023-05-19T12:38:52;20.73;;;18.13;;
71910;SDS011;59783;52.232;5.170;2023-05-19T12:41:18;21.02;;;18.83;;
71910;SDS011;59783;52.232;5.170;2023-05-19T12:43:43;24.77;;;22.17;;
71910;SDS011;59783;52.232;5.170;2023-05-19T12:46:11;20.95;;;18.75;;
71910;SDS011;59783;52.232;5.170;2023-05-19T12:48:43;21.98;;;19.67;;
71910;SDS011;59783;52.232;5.170;2023-05-19T12:51:08;21.88;;;18.75;;
71910;SDS011;59783;52.232;5.170;2023-05-19T12:53:35;26.33;;;23.63;;
71910;SDS011;59783;52.232;5.170;2023-05-19T12:56:00;22.27;;;19.90;;
71910;SDS011;59783;52.232;5.170;2023-05-19T12:58:25;21.07;;;18.30;;
71910;SDS011;59783;52.232;5.170;2023-05-19T13:00:51;20.50;;;18.10;;
71910;SDS011;59783;52.232;5.170;2023-05-19T13:03:20;20.48;;;18.27;;
71910;SDS011;59783;52.232;5.170;2023-05-19T13:05:46;20.90;;;18.70;;
71910;SDS011;59783;52.232;5.170;2023-05-19T13:08:12;21.48;;;19.40;;
71910;SDS011;59783;52.232;5.170;2023-05-19T13:10:38;21.33;;;19.08;;
71910;SDS011;59783;52.232;5.170;2023-05-19T13:13:04;20.85;;;18.60;;
71910;SDS011;59783;52.232;5.170;2023-05-19T13:15:30;21.27;;;19.10;;
71910;SDS011;59783;52.232;5.170;2023-05-19T13:17:58;20.27;;;18.25;;
71910;SDS011;59783;52.232;5.170;2023-05-19T13:20:23;23.23;;;20.95;;
71910;SDS011;59783;52.232;5.170;2023-05-19T13:22:49;22.10;;;18.73;;
71910;SDS011;59783;52.232;5.170;2023-05-19T13:25:14;21.75;;;17.75;;
71910;SDS011;59783;52.232;5.170;2023-05-19T13:27:40;26.50;;;23.80;;
71910;SDS011;59783;52.232;5.170;2023-05-19T13:30:06;20.30;;;18.17;;
71910;SDS011;59783;52.232;5.170;2023-05-19T13:32:31;22.02;;;19.10;;
71910;SDS011;59783;52.232;5.170;2023-05-19T13:34:56;20.65;;;18.65;;
71910;SDS011;59783;52.232;5.170;2023-05-19T13:37:22;21.38;;;19.17;;
71910;SDS011;59783;52.232;5.170;2023-05-19T13:39:47;26.63;;;24.13;;
71910;SDS011;59783;52.232;5.170;2023-05-19T13:42:12;19.73;;;17.67;;
71910;SDS011;59783;52.232;5.170;2023-05-19T13:44:38;20.70;;;18.60;;
71910;SDS011;59783;52.232;5.170;2023-05-19T13:47:03;24.37;;;21.87;;
71910;SDS011;59783;52.232;5.170;2023-05-19T13:49:28;21.67;;;19.08;;
71910;SDS011;59783;52.232;5.170;2023-05-19T13:51:56;20.63;;;18.23;;
71910;SDS011;59783;52.232;5.170;2023-05-19T13:54:22;25.35;;;22.73;;
71910;SDS011;59783;52.232;5.170;2023-05-19T13:56:47;24.73;;;22.23;;
71910;SDS011;59783;52.232;5.170;2023-05-19T13:59:12;21.23;;;18.55;;
71910;SDS011;59783;52.232;5.170;2023-05-19T14:01:38;21.73;;;19.60;;
71910;SDS011;59783;52.232;5.170;2023-05-19T14:04:03;22.63;;;20.47;;
71910;SDS011;59783;52.232;5.170;2023-05-19T14:06:28;25.35;;;22.90;;
71910;SDS011;59783;52.232;5.170;2023-05-19T14:08:53;25.77;;;23.10;;
71910;SDS011;59783;52.232;5.170;2023-05-19T14:11:19;26.08;;;23.25;;
71910;SDS011;59783;52.232;5.170;2023-05-19T14:13:46;20.95;;;18.73;;
71910;SDS011;59783;52.232;5.170;2023-05-19T14:16:12;26.55;;;23.90;;
71910;SDS011;59783;52.232;5.170;2023-05-19T14:18:37;27.23;;;24.67;;
71910;SDS011;59783;52.232;5.170;2023-05-19T14:21:02;28.43;;;25.47;;
71910;SDS011;59783;52.232;5.170;2023-05-19T14:23:27;24.53;;;22.17;;
71910;SDS011;59783;52.232;5.170;2023-05-19T14:25:54;25.85;;;23.08;;
71910;SDS011;59783;52.232;5.170;2023-05-19T14:28:19;21.33;;;18.93;;
71910;SDS011;59783;52.232;5.170;2023-05-19T14:30:44;22.90;;;20.48;;
71910;SDS011;59783;52.232;5.170;2023-05-19T14:33:09;27.63;;;24.87;;
71910;SDS011;59783;52.232;5.170;2023-05-19T14:35:35;27.60;;;24.67;;
71910;SDS011;59783;52.232;5.170;2023-05-19T14:38:00;25.30;;;23.10;;
71910;SDS011;59783;52.232;5.170;2023-05-19T14:40:25;24.63;;;22.30;;
71910;SDS011;59783;52.232;5.170;2023-05-19T14:42:51;25.17;;;22.73;;
71910;SDS011;59783;52.232;5.170;2023-05-19T14:45:16;25.93;;;23.43;;
71910;SDS011;59783;52.232;5.170;2023-05-19T14:47:41;20.53;;;18.40;;